createdAt,value
2022-12-15T00:02:36.885Z,8.13
2022-12-15T00:05:23.595Z,7.80
2022-12-15T00:08:09.509Z,7.85
2022-12-15T00:10:55.445Z,7.53
2022-12-15T00:13:41.206Z,7.20
2022-12-15T00:16:27.228Z,7.97
2022-12-15T00:19:12.754Z,7.80
2022-12-15T00:21:58.284Z,7.47
2022-12-15T00:24:44.093Z,6.93
2022-12-15T00:27:33.890Z,6.68
2022-12-15T00:30:19.835Z,6.80
2022-12-15T00:33:05.661Z,7.45
2022-12-15T00:35:51.617Z,6.88
2022-12-15T00:38:37.641Z,7.05
2022-12-15T00:41:05.052Z,7.22
2022-12-15T00:43:35.380Z,6.90
2022-12-15T00:46:22.704Z,7.00
2022-12-15T00:48:50.276Z,7.70
2022-12-15T00:51:18.492Z,7.03
2022-12-15T00:54:04.823Z,7.55
2022-12-15T00:56:51.229Z,7.55
2022-12-15T00:59:37.088Z,7.47
2022-12-15T01:02:23.079Z,7.90
2022-12-15T01:05:08.959Z,7.45
2022-12-15T01:07:54.691Z,7.43
2022-12-15T01:10:40.379Z,7.47
2022-12-15T01:13:26.243Z,7.25
2022-12-15T01:16:12.115Z,7.65
2022-12-15T01:18:58.064Z,7.20
2022-12-15T01:21:25.499Z,7.10
2022-12-15T01:23:53.721Z,7.78
2022-12-15T01:26:20.987Z,7.40
2022-12-15T01:28:48.177Z,7.43
2022-12-15T01:31:15.307Z,7.22
2022-12-15T01:33:43.843Z,7.63
2022-12-15T01:36:11.794Z,7.55
2022-12-15T01:38:38.889Z,7.22
2022-12-15T01:41:10.766Z,7.85
2022-12-15T01:43:40.388Z,7.72
2022-12-15T01:46:10.543Z,7.80
2022-12-15T01:49:00.602Z,7.57
2022-12-15T01:51:43.385Z,7.57
2022-12-15T01:54:21.287Z,7.20
2022-12-15T01:56:56.170Z,7.60
2022-12-15T01:59:33.514Z,7.53
2022-12-15T02:02:01.462Z,7.43
2022-12-15T02:04:29.249Z,7.55
2022-12-15T02:06:56.447Z,7.57
2022-12-15T02:09:25.925Z,8.73
2022-12-15T02:12:08.107Z,7.97
2022-12-15T02:15:06.288Z,8.07
2022-12-15T02:17:48.818Z,7.50
2022-12-15T02:20:44.533Z,7.95
2022-12-15T02:23:57.877Z,7.85
2022-12-15T02:27:11.197Z,6.97
2022-12-15T02:30:36.893Z,7.43
2022-12-15T02:33:09.465Z,7.05
2022-12-15T02:36:16.324Z,7.53
2022-12-15T02:38:43.589Z,7.75
2022-12-15T02:41:49.127Z,7.32
2022-12-15T02:44:27.234Z,8.30
2022-12-15T02:47:10.069Z,8.07
2022-12-15T02:50:07.041Z,8.27
2022-12-15T02:53:35.004Z,8.50
2022-12-15T02:56:47.137Z,7.70
2022-12-15T02:59:56.174Z,8.15
2022-12-15T03:02:31.341Z,7.75
2022-12-15T03:04:59.585Z,8.50
2022-12-15T03:07:28.335Z,8.68
2022-12-15T03:10:02.007Z,8.88
2022-12-15T03:12:29.261Z,9.02
2022-12-15T03:14:56.466Z,8.23
2022-12-15T03:17:23.766Z,8.32
2022-12-15T03:19:51.111Z,9.18
2022-12-15T03:22:18.322Z,9.10
2022-12-15T03:24:45.517Z,8.70
2022-12-15T03:27:12.622Z,8.35
2022-12-15T03:29:40.032Z,9.00
2022-12-15T03:32:07.253Z,8.80
2022-12-15T03:34:34.668Z,9.25
2022-12-15T03:37:01.686Z,9.27
2022-12-15T03:39:28.941Z,9.52
2022-12-15T03:41:56.040Z,9.43
2022-12-15T03:44:23.276Z,9.13
2022-12-15T03:46:50.399Z,9.02
2022-12-15T03:49:17.529Z,9.32
2022-12-15T03:51:45.156Z,10.13
2022-12-15T03:54:15.791Z,9.38
2022-12-15T03:56:43.056Z,9.73
2022-12-15T03:59:10.153Z,10.05
2022-12-15T04:01:37.705Z,9.52
2022-12-15T04:04:05.617Z,9.98
2022-12-15T04:06:32.813Z,9.13
2022-12-15T04:08:59.882Z,9.90
2022-12-15T04:11:27.272Z,9.63
2022-12-15T04:13:54.436Z,8.80
2022-12-15T04:16:21.714Z,9.52
2022-12-15T04:19:11.792Z,10.50
2022-12-15T04:21:38.835Z,10.23
2022-12-15T04:24:25.255Z,9.70
2022-12-15T04:27:11.183Z,9.07
2022-12-15T04:29:57.005Z,9.30
2022-12-15T04:32:43.297Z,8.50
2022-12-15T04:35:30.195Z,9.38
2022-12-15T04:38:16.617Z,8.98
2022-12-15T04:41:02.491Z,8.82
2022-12-15T04:43:48.256Z,9.52
2022-12-15T04:46:34.120Z,9.43
2022-12-15T04:49:19.832Z,10.23
2022-12-15T04:52:05.703Z,8.57
2022-12-15T04:54:51.530Z,9.35
2022-12-15T04:57:37.347Z,13.63
2022-12-15T05:00:24.294Z,11.18
2022-12-15T05:03:15.029Z,10.15
2022-12-15T05:06:04.151Z,9.60
2022-12-15T05:08:50.379Z,9.75
2022-12-15T05:11:36.998Z,9.70
2022-12-15T05:14:23.295Z,9.90
2022-12-15T05:17:09.174Z,9.75
2022-12-15T05:19:55.017Z,8.30
2022-12-15T05:22:40.822Z,8.80
2022-12-15T05:25:26.981Z,9.40
2022-12-15T05:28:13.272Z,7.97
2022-12-15T05:30:59.313Z,7.90
2022-12-15T05:33:26.524Z,8.68
2022-12-15T05:35:58.241Z,8.85
2022-12-15T05:38:25.539Z,8.40
2022-12-15T05:40:52.699Z,8.60
2022-12-15T05:43:26.078Z,8.95
2022-12-15T05:45:53.624Z,9.40
2022-12-15T05:48:20.923Z,9.32
2022-12-15T05:50:47.938Z,9.75
2022-12-15T05:53:17.021Z,9.55
2022-12-15T05:55:44.152Z,9.50
2022-12-15T05:58:11.355Z,10.43
2022-12-15T06:00:39.380Z,9.90
2022-12-15T06:03:06.575Z,9.30
2022-12-15T06:05:34.500Z,10.05
2022-12-15T06:08:01.685Z,9.82
2022-12-15T06:10:28.834Z,9.70
2022-12-15T06:12:56.183Z,10.23
2022-12-15T06:15:23.177Z,9.77
2022-12-15T06:17:50.364Z,9.80
2022-12-15T06:20:17.484Z,9.60
2022-12-15T06:22:49.721Z,10.23
2022-12-15T06:25:17.925Z,9.68
2022-12-15T06:27:45.000Z,9.55
2022-12-15T06:30:12.794Z,10.00
2022-12-15T06:32:39.830Z,10.30
2022-12-15T06:35:07.696Z,10.57
2022-12-15T06:37:34.904Z,10.70
2022-12-15T06:40:02.190Z,10.27
2022-12-15T06:42:29.413Z,10.13
2022-12-15T06:44:56.374Z,10.95
2022-12-15T06:47:23.712Z,9.88
2022-12-15T06:49:50.862Z,10.00
2022-12-15T06:52:17.876Z,10.68
2022-12-15T06:54:45.010Z,10.73
2022-12-15T06:57:12.060Z,10.43
2022-12-15T06:59:39.251Z,10.63
2022-12-15T07:02:21.117Z,10.27
2022-12-15T07:04:50.998Z,10.20
2022-12-15T07:07:18.034Z,10.32
2022-12-15T07:09:45.191Z,10.82
2022-12-15T07:12:13.005Z,11.27
2022-12-15T07:14:40.146Z,10.57
2022-12-15T07:17:07.259Z,10.13
2022-12-15T07:19:34.504Z,10.52
2022-12-15T07:22:01.587Z,10.02
2022-12-15T07:24:28.753Z,10.23
2022-12-15T07:26:56.062Z,10.18
2022-12-15T07:29:23.824Z,9.73
2022-12-15T07:31:51.110Z,10.15
2022-12-15T07:34:18.352Z,10.77
2022-12-15T07:36:51.523Z,10.77
2022-12-15T07:39:19.447Z,10.50
2022-12-15T07:41:46.829Z,10.55
2022-12-15T07:44:14.926Z,10.48
2022-12-15T07:46:46.818Z,10.50
2022-12-15T07:49:14.206Z,10.40
2022-12-15T07:51:44.466Z,10.02
2022-12-15T07:54:12.988Z,10.50
2022-12-15T07:56:40.891Z,11.07
2022-12-15T07:59:09.990Z,10.90
2022-12-15T08:01:37.165Z,11.23
2022-12-15T08:04:04.922Z,10.52
2022-12-15T08:06:32.016Z,10.48
2022-12-15T08:08:59.257Z,11.55
2022-12-15T08:11:26.385Z,10.85
2022-12-15T08:14:03.109Z,10.93
2022-12-15T08:16:31.540Z,10.50
2022-12-15T08:18:58.897Z,11.30
2022-12-15T08:21:25.977Z,10.93
2022-12-15T08:23:53.292Z,10.80
2022-12-15T08:26:23.876Z,10.35
2022-12-15T08:28:55.632Z,10.57
2022-12-15T08:31:24.308Z,10.75
2022-12-15T08:33:52.343Z,10.98
2022-12-15T08:36:20.956Z,10.60
2022-12-15T08:38:48.729Z,10.60
2022-12-15T08:41:19.715Z,10.88
2022-12-15T08:43:49.348Z,10.30
2022-12-15T08:46:19.522Z,10.80
2022-12-15T08:48:46.845Z,10.27
2022-12-15T08:51:15.214Z,11.35
2022-12-15T08:53:42.896Z,10.30
2022-12-15T08:56:14.208Z,10.32
2022-12-15T08:58:42.943Z,10.57
2022-12-15T09:01:22.997Z,10.80
2022-12-15T09:03:53.853Z,10.75
2022-12-15T09:06:29.278Z,11.00
2022-12-15T09:08:59.176Z,11.13
2022-12-15T09:11:28.476Z,10.65
2022-12-15T09:13:56.006Z,10.68
2022-12-15T09:16:23.798Z,11.00
2022-12-15T09:18:54.200Z,10.32
2022-12-15T09:21:23.924Z,11.20
2022-12-15T09:23:52.767Z,11.30
2022-12-15T09:26:22.512Z,10.70
2022-12-15T09:28:51.099Z,10.90
2022-12-15T09:31:33.478Z,11.55
2022-12-15T09:34:02.537Z,11.43
2022-12-15T09:36:32.873Z,11.80
2022-12-15T09:39:01.970Z,11.18
2022-12-15T09:41:33.547Z,11.80
2022-12-15T09:44:21.058Z,11.05
2022-12-15T09:47:28.562Z,12.07
2022-12-15T09:49:58.522Z,10.70
2022-12-15T09:52:32.442Z,11.25
2022-12-15T09:55:01.908Z,11.23
2022-12-15T09:57:36.191Z,12.02
2022-12-15T10:00:21.321Z,11.02
2022-12-15T10:03:22.850Z,11.32
2022-12-15T10:09:21.656Z,10.15
2022-12-15T10:11:59.204Z,10.43
2022-12-15T10:14:52.447Z,11.45
2022-12-15T10:17:29.872Z,10.95
2022-12-15T10:20:26.481Z,11.77
2022-12-15T10:22:56.915Z,11.02
2022-12-15T10:25:30.994Z,11.80
2022-12-15T10:28:22.197Z,11.25
2022-12-15T10:31:23.013Z,10.83
2022-12-15T10:34:10.498Z,11.02
2022-12-15T10:36:37.801Z,11.80
2022-12-15T10:39:04.854Z,11.98
2022-12-15T10:41:33.859Z,12.45
2022-12-15T10:44:02.697Z,12.85
2022-12-15T10:46:32.013Z,12.07
2022-12-15T10:49:06.845Z,12.50
2022-12-15T10:52:04.508Z,12.18
2022-12-15T10:54:37.036Z,11.85
2022-12-15T10:57:27.827Z,12.05
2022-12-15T11:00:16.204Z,12.13
2022-12-15T11:02:43.596Z,11.10
2022-12-15T11:05:16.915Z,11.32
2022-12-15T11:07:54.117Z,11.90
2022-12-15T11:10:53.374Z,11.68
2022-12-15T11:13:23.150Z,11.57
2022-12-15T11:15:53.267Z,11.90
2022-12-15T11:19:06.804Z,10.57
2022-12-15T11:21:50.951Z,11.38
2022-12-15T11:25:00.101Z,11.68
2022-12-15T11:27:35.975Z,10.25
2022-12-15T11:30:17.503Z,11.82
2022-12-15T11:32:55.803Z,10.93
2022-12-15T11:35:33.836Z,10.68
2022-12-15T11:38:35.546Z,11.88
2022-12-15T11:41:45.115Z,11.45
2022-12-15T11:44:23.721Z,11.57
2022-12-15T11:47:10.431Z,11.57
2022-12-15T11:50:24.835Z,11.70
2022-12-15T11:53:28.740Z,11.30
2022-12-15T11:56:24.081Z,11.27
2022-12-15T11:59:15.827Z,11.93
2022-12-15T12:05:19.072Z,12.40
2022-12-15T12:07:50.908Z,11.70
2022-12-15T12:11:05.988Z,12.07
2022-12-15T12:13:58.523Z,12.45
2022-12-15T12:17:09.016Z,11.65
2022-12-15T12:19:44.820Z,12.10
2022-12-15T12:22:29.892Z,12.43
2022-12-15T12:25:03.864Z,12.02
2022-12-15T12:27:53.227Z,12.50
2022-12-15T12:30:26.377Z,13.02
2022-12-15T12:33:06.803Z,12.60
2022-12-15T12:35:59.015Z,13.18
2022-12-15T12:38:34.402Z,13.07
2022-12-15T12:41:11.057Z,12.43
2022-12-15T12:44:04.036Z,12.55
2022-12-15T12:46:40.480Z,13.05
2022-12-15T12:49:38.222Z,12.60
2022-12-15T12:52:20.366Z,12.45
2022-12-15T12:55:41.435Z,11.85
2022-12-15T12:58:38.944Z,12.52
2022-12-15T13:01:20.627Z,12.60
2022-12-15T13:04:13.208Z,12.32
2022-12-15T13:06:40.643Z,12.10
2022-12-15T13:09:20.140Z,12.43
2022-12-15T13:11:52.855Z,12.32
2022-12-15T13:14:35.151Z,12.57
2022-12-15T13:17:26.667Z,13.07
2022-12-15T13:22:41.898Z,11.50
2022-12-15T13:25:27.723Z,11.32
2022-12-15T13:28:01.246Z,11.68
2022-12-15T13:30:28.404Z,12.00
2022-12-15T13:33:17.404Z,12.07
2022-12-15T13:35:44.881Z,12.73
2022-12-15T13:38:18.821Z,13.27
2022-12-15T13:40:54.185Z,12.85
2022-12-15T13:43:27.175Z,12.38
2022-12-15T13:46:05.979Z,12.70
2022-12-15T13:48:49.299Z,13.05
2022-12-15T13:51:30.363Z,13.05
2022-12-15T13:54:05.303Z,13.93
2022-12-15T13:57:05.330Z,14.88
2022-12-15T13:59:53.249Z,12.18
2022-12-15T14:02:35.539Z,12.82
2022-12-15T14:05:15.123Z,12.90
2022-12-15T14:07:58.033Z,12.85
2022-12-15T14:10:33.459Z,12.43
2022-12-15T14:13:16.455Z,12.95
2022-12-15T14:15:50.903Z,12.40
2022-12-15T14:18:34.807Z,11.88
2022-12-15T14:21:06.514Z,13.27
2022-12-15T14:26:31.917Z,11.48
2022-12-15T14:29:06.206Z,12.13
2022-12-15T14:31:34.114Z,11.77
2022-12-15T14:34:09.241Z,12.57
2022-12-15T14:36:36.932Z,13.10
2022-12-15T14:39:13.068Z,13.35
2022-12-15T14:41:48.978Z,12.63
2022-12-15T14:44:39.524Z,13.05
2022-12-15T14:47:22.461Z,13.43
2022-12-15T14:49:51.077Z,12.05
2022-12-15T14:52:42.991Z,13.40
2022-12-15T14:55:42.754Z,12.15
2022-12-15T14:58:36.080Z,12.27
2022-12-15T15:01:07.313Z,12.43
2022-12-15T15:03:04.234Z,10.90
2022-12-15T15:03:07.046Z,11.52
2022-12-15T15:03:40.020Z,12.05
2022-12-15T15:06:13.216Z,12.93
2022-12-15T15:08:49.849Z,12.80
2022-12-15T15:11:36.340Z,12.88
2022-12-15T15:14:27.727Z,12.95
2022-12-15T15:17:17.080Z,12.88
2022-12-15T15:19:59.343Z,12.75
2022-12-15T15:22:39.773Z,11.85
2022-12-15T15:25:42.636Z,13.65
2022-12-15T15:28:28.888Z,13.10
2022-12-15T15:31:05.648Z,12.82
2022-12-15T15:33:47.668Z,13.10
2022-12-15T15:36:15.462Z,13.20
2022-12-15T15:38:46.694Z,12.07
2022-12-15T15:41:31.514Z,12.93
2022-12-15T15:44:01.526Z,12.05
2022-12-15T15:46:32.196Z,12.13
2022-12-15T15:49:06.464Z,13.73
2022-12-15T15:51:33.816Z,13.10
2022-12-15T15:54:05.741Z,13.38
2022-12-15T15:56:32.847Z,13.25
2022-12-15T15:59:13.577Z,13.38
2022-12-15T16:01:41.388Z,14.18
2022-12-15T16:04:09.169Z,12.82
2022-12-15T16:06:38.024Z,13.30
2022-12-15T16:09:07.314Z,13.00
2022-12-15T16:11:35.392Z,13.75
2022-12-15T16:14:03.697Z,13.63
2022-12-15T16:16:33.097Z,13.50
2022-12-15T16:19:00.209Z,14.00
2022-12-15T16:21:28.762Z,13.80
2022-12-15T16:23:58.273Z,13.13
2022-12-15T16:26:32.683Z,13.27
2022-12-15T16:29:00.294Z,13.77
2022-12-15T16:31:41.212Z,13.75
2022-12-15T16:34:09.221Z,12.48
2022-12-15T16:36:36.593Z,12.90
2022-12-15T16:39:05.041Z,12.48
2022-12-15T16:41:33.033Z,12.32
2022-12-15T16:44:00.187Z,14.30
2022-12-15T16:46:27.218Z,13.27
2022-12-15T16:48:54.924Z,13.25
2022-12-15T16:51:53.434Z,13.05
2022-12-15T16:54:26.015Z,12.38
2022-12-15T16:56:55.491Z,10.52
2022-12-15T16:59:33.622Z,12.75
2022-12-15T17:02:01.737Z,11.45
2022-12-15T17:04:29.019Z,12.30
2022-12-15T17:06:56.189Z,12.48
2022-12-15T17:09:25.820Z,11.60
2022-12-15T17:11:53.039Z,11.40
2022-12-15T17:14:20.392Z,11.80
2022-12-15T17:16:47.434Z,11.18
2022-12-15T17:19:20.675Z,10.90
2022-12-15T17:21:52.006Z,11.48
2022-12-15T17:24:21.186Z,11.50
2022-12-15T17:26:48.774Z,10.15
2022-12-15T17:29:24.053Z,9.85
2022-12-15T17:31:51.307Z,10.77
2022-12-15T17:34:32.892Z,10.13
2022-12-15T17:37:06.320Z,11.32
2022-12-15T17:39:35.159Z,10.40
2022-12-15T17:42:03.354Z,10.15
2022-12-15T17:44:36.661Z,10.57
2022-12-15T17:47:07.948Z,9.45
2022-12-15T17:49:37.989Z,10.18
2022-12-15T17:52:28.302Z,9.57
2022-12-15T17:54:56.470Z,10.20
2022-12-15T17:57:23.891Z,10.38
2022-12-15T17:59:51.191Z,10.57
2022-12-15T18:02:18.498Z,10.52
2022-12-15T18:04:45.997Z,10.70
2022-12-15T18:07:22.099Z,10.48
2022-12-15T18:09:53.360Z,10.75
2022-12-15T18:12:26.898Z,10.38
2022-12-15T18:14:55.321Z,10.77
2022-12-15T18:17:23.791Z,10.68
2022-12-15T18:19:51.473Z,11.00
2022-12-15T18:22:24.314Z,10.88
2022-12-15T18:24:54.463Z,10.63
2022-12-15T18:27:27.332Z,11.02
2022-12-15T18:29:55.677Z,11.23
2022-12-15T18:32:26.324Z,11.07
2022-12-15T18:34:54.818Z,11.60
2022-12-15T18:37:25.208Z,11.65
2022-12-15T18:39:53.465Z,11.50
2022-12-15T18:42:21.929Z,11.60
2022-12-15T18:44:52.288Z,12.18
2022-12-15T18:47:23.130Z,12.27
2022-12-15T18:49:50.601Z,12.05
2022-12-15T18:52:23.878Z,12.02
2022-12-15T18:54:54.111Z,11.25
2022-12-15T18:57:36.515Z,12.10
2022-12-15T19:00:20.109Z,12.10
2022-12-15T19:02:48.725Z,11.75
2022-12-15T19:05:28.670Z,12.57
2022-12-15T19:08:00.801Z,11.48
2022-12-15T19:10:32.495Z,11.90
2022-12-15T19:13:00.667Z,12.52
2022-12-15T19:15:28.320Z,12.23
2022-12-15T19:18:14.188Z,11.88
2022-12-15T19:21:00.221Z,10.88
2022-12-15T19:23:27.487Z,11.45
2022-12-15T19:25:55.062Z,11.55
2022-12-15T19:28:24.262Z,12.07
2022-12-15T19:30:52.277Z,11.65
2022-12-15T19:33:20.543Z,11.48
2022-12-15T19:35:51.236Z,11.95
2022-12-15T19:38:32.674Z,11.60
2022-12-15T19:41:00.560Z,11.32
2022-12-15T19:43:28.154Z,11.32
2022-12-15T19:45:55.352Z,11.02
2022-12-15T19:48:24.169Z,11.43
2022-12-15T19:50:54.656Z,11.55
2022-12-15T19:53:28.753Z,11.30
2022-12-15T19:56:01.605Z,11.88
2022-12-15T19:58:35.196Z,11.63
2022-12-15T20:01:11.163Z,10.40
2022-12-15T20:03:39.529Z,11.02
2022-12-15T20:06:26.195Z,11.40
2022-12-15T20:08:56.250Z,10.77
2022-12-15T20:11:32.401Z,10.63
2022-12-15T20:14:02.949Z,11.27
2022-12-15T20:16:30.060Z,11.30
2022-12-15T20:18:57.356Z,10.93
2022-12-15T20:21:32.813Z,11.07
2022-12-15T20:24:17.539Z,10.82
2022-12-15T20:26:46.048Z,10.23
2022-12-15T20:29:33.525Z,11.30
2022-12-15T20:32:01.130Z,10.48
2022-12-15T20:34:28.350Z,11.18
2022-12-15T20:36:55.396Z,10.50
2022-12-15T20:39:27.213Z,10.52
2022-12-15T20:41:55.714Z,10.90
2022-12-15T20:44:24.043Z,11.07
2022-12-15T20:46:51.563Z,10.35
2022-12-15T20:49:21.527Z,11.25
2022-12-15T20:51:49.783Z,10.90
2022-12-15T20:54:21.716Z,9.80
2022-12-15T20:56:49.917Z,10.55
2022-12-15T20:59:18.432Z,10.68
2022-12-15T21:01:47.053Z,10.25
2022-12-15T21:04:27.904Z,11.02
2022-12-15T21:06:56.904Z,10.35
2022-12-15T21:09:24.773Z,10.68
2022-12-15T21:11:54.432Z,10.10
2022-12-15T21:14:24.075Z,11.00
2022-12-15T21:16:51.688Z,10.45
2022-12-15T21:19:20.928Z,10.68
2022-12-15T21:21:55.265Z,10.80
2022-12-15T21:24:27.806Z,10.27
2022-12-15T21:26:55.427Z,11.30
2022-12-15T21:29:25.924Z,10.77
2022-12-15T21:31:53.201Z,11.07
2022-12-15T21:34:20.695Z,11.45
2022-12-15T21:36:52.067Z,11.52
2022-12-15T21:39:36.641Z,11.00
2022-12-15T21:42:17.217Z,10.50
2022-12-15T21:44:45.194Z,10.15
2022-12-15T21:47:48.948Z,10.70
2022-12-15T21:50:17.798Z,10.43
2022-12-15T21:52:47.268Z,9.70
2022-12-15T21:55:24.410Z,11.00
2022-12-15T21:57:51.594Z,10.15
2022-12-15T22:00:20.354Z,10.10
2022-12-15T22:02:49.665Z,10.70
2022-12-15T22:05:32.603Z,10.75
2022-12-15T22:08:15.331Z,11.00
2022-12-15T22:10:43.048Z,9.95
2022-12-15T22:13:20.665Z,10.20
2022-12-15T22:15:51.125Z,9.70
2022-12-15T22:18:22.729Z,10.57
2022-12-15T22:20:52.476Z,9.95
2022-12-15T22:23:20.918Z,10.07
2022-12-15T22:25:51.856Z,9.85
2022-12-15T22:28:28.127Z,10.80
2022-12-15T22:30:56.778Z,9.18
2022-12-15T22:33:26.480Z,9.23
2022-12-15T22:35:56.014Z,9.90
2022-12-15T22:38:24.072Z,8.25
2022-12-15T22:40:55.497Z,9.13
2022-12-15T22:46:15.248Z,8.15
2022-12-15T22:48:46.059Z,7.40
2022-12-15T22:51:16.470Z,7.93
2022-12-15T22:53:44.144Z,7.45
2022-12-15T22:56:27.179Z,8.65
2022-12-15T22:59:05.286Z,8.20
2022-12-15T23:01:32.474Z,8.23
2022-12-15T23:04:00.020Z,8.57
2022-12-15T23:06:28.433Z,9.25
2022-12-15T23:08:56.412Z,7.97
2022-12-15T23:11:39.820Z,8.65
2022-12-15T23:14:11.909Z,8.88
2022-12-15T23:16:39.368Z,8.32
2022-12-15T23:19:07.998Z,8.32
2022-12-15T23:21:36.288Z,8.70
2022-12-15T23:24:03.516Z,8.90
2022-12-15T23:26:30.798Z,8.25
2022-12-15T23:28:58.112Z,8.55
2022-12-15T23:31:25.260Z,9.27
2022-12-15T23:33:52.621Z,9.40
2022-12-15T23:36:19.917Z,9.55
2022-12-15T23:38:47.223Z,9.65
2022-12-15T23:41:18.437Z,10.13
2022-12-15T23:43:46.809Z,9.60
2022-12-15T23:46:14.404Z,9.60
2022-12-15T23:48:44.601Z,9.88
2022-12-15T23:51:19.236Z,10.20
2022-12-15T23:53:48.093Z,10.18
2022-12-15T23:56:21.283Z,10.38
2022-12-15T23:58:56.099Z,9.90
